Time;durP1;ratioP1;P1;durP2;ratioP2;P2;SDS_P1;SDS_P2;PMS_P1;PMS_P2;Temp;Humidity;BMP_temperature;BMP_pressure;BME280_temperature;BME280_humidity;BME280_pressure;Samples;Min_cycle;Max_cycle;Signal;HPM_P1;HPM_P2
2022/12/30 00:01:17;;;;;;;21.20;3.17;;;6.40;99.90;;;;;;5094188;28;20035;-68
2022/12/30 00:03:43;;;;;;;25.20;4.30;;;6.40;99.90;;;;;;5094363;28;20047;-68
2022/12/30 00:06:14;;;;;;;18.23;3.60;;;6.40;99.90;;;;;;5093674;28;20032;-67
2022/12/30 00:08:47;;;;;;;24.88;3.63;;;6.40;99.90;;;;;;5126159;27;20055;-66
2022/12/30 00:11:30;;;;;;;19.60;3.20;;;6.30;99.90;;;;;;5093805;28;20039;-67
2022/12/30 00:34:14;;;;;;;16.92;2.80;;;6.00;99.90;;;;;;5093025;28;20533;-67
2022/12/30 00:36:40;;;;;;;21.80;3.20;;;6.00;99.90;;;;;;5093045;28;20047;-67
2022/12/30 00:39:05;;;;;;;25.20;3.65;;;6.00;99.90;;;;;;5092583;28;20066;-68
2022/12/30 00:44:15;;;;;;;22.40;3.67;;;5.90;99.90;;;;;;5090917;28;20104;-68
2022/12/30 00:46:43;;;;;;;21.10;3.20;;;5.90;99.90;;;;;;5094568;28;20047;-70
2022/12/30 00:57:21;;;;;;;12.70;2.80;;;5.90;99.90;;;;;;5093618;28;20101;-66
2022/12/30 00:59:47;;;;;;;16.38;2.72;;;5.90;99.90;;;;;;5092890;28;20074;-68
2022/12/30 01:02:13;;;;;;;16.67;2.83;;;5.90;99.90;;;;;;5093189;28;20122;-68
2022/12/30 01:04:38;;;;;;;20.27;2.90;;;5.80;99.90;;;;;;5095384;28;20040;-68
2022/12/30 01:07:04;;;;;;;19.15;2.90;;;5.80;99.90;;;;;;5093266;28;20633;-67
2022/12/30 01:09:30;;;;;;;21.00;2.70;;;5.80;99.90;;;;;;5092799;28;20382;-67
2022/12/30 01:12:07;;;;;;;15.00;3.10;;;5.80;99.90;;;;;;5092657;28;20383;-68
2022/12/30 01:14:45;;;;;;;20.27;3.05;;;5.80;99.90;;;;;;5126736;27;20561;-67
2022/12/30 01:17:14;;;;;;;18.73;2.63;;;5.90;99.90;;;;;;5092821;28;20039;-70
2022/12/30 01:19:40;;;;;;;17.90;2.72;;;5.80;99.90;;;;;;5126272;27;20036;-67
2022/12/30 01:22:07;;;;;;;17.25;3.58;;;5.90;99.90;;;;;;5094199;28;20039;-68
2022/12/30 01:24:33;;;;;;;14.02;2.90;;;5.90;99.90;;;;;;5091952;28;20386;-67
2022/12/30 01:26:58;;;;;;;15.60;2.65;;;5.80;99.90;;;;;;5078638;28;20179;-67
2022/12/30 01:29:28;;;;;;;12.00;3.03;;;5.80;99.90;;;;;;5091203;28;20043;-68
2022/12/30 01:31:56;;;;;;;18.00;3.17;;;5.80;99.90;;;;;;5091222;28;20466;-69
2022/12/30 01:34:22;;;;;;;14.48;2.67;;;5.80;99.90;;;;;;5092866;28;20131;-68
2022/12/30 01:36:48;;;;;;;18.52;3.50;;;5.80;99.90;;;;;;5092223;28;20098;-67
2022/12/30 01:39:13;;;;;;;19.25;3.47;;;5.80;99.90;;;;;;5092812;28;20035;-68
2022/12/30 01:41:39;;;;;;;21.23;3.65;;;5.70;99.90;;;;;;5092643;28;20042;-67
2022/12/30 01:44:42;;;;;;;23.17;3.13;;;5.80;99.90;;;;;;5075123;28;20048;-68
2022/12/30 01:47:08;;;;;;;;;;;5.70;99.90;;;;;;5093079;28;20432;-68
2022/12/30 01:49:37;;;;;;;17.70;3.60;;;5.70;99.90;;;;;;5126565;28;19966;-68
2022/12/30 01:52:04;;;;;;;16.92;3.28;;;5.70;99.90;;;;;;5092032;28;20518;-70
2022/12/30 01:54:30;;;;;;;16.63;2.97;;;5.70;99.90;;;;;;5092235;28;20036;-67
2022/12/30 01:56:56;;;;;;;16.33;2.85;;;5.70;99.90;;;;;;5091719;28;20119;-68
2022/12/30 01:59:23;;;;;;;22.20;3.47;;;5.70;99.90;;;;;;5092548;28;20110;-67
2022/12/30 02:01:49;;;;;;;20.17;3.22;;;5.70;99.90;;;;;;5092086;28;20111;-68
2022/12/30 02:04:18;;;;;;;21.15;3.72;;;5.70;99.90;;;;;;5091094;28;20114;-68
2022/12/30 02:06:59;;;;;;;15.45;3.17;;;5.60;99.90;;;;;;5126457;27;20134;-68
2022/12/30 02:09:26;;;;;;;23.80;4.43;;;5.60;99.90;;;;;;5093144;28;20116;-69
2022/12/30 02:11:52;;;;;;;19.10;3.70;;;5.60;99.90;;;;;;5091249;28;20035;-68
2022/12/30 02:14:19;;;;;;;21.52;3.83;;;5.60;99.90;;;;;;5122521;27;20052;-69
2022/12/30 02:17:23;;;;;;;18.52;3.35;;;5.60;99.90;;;;;;5108905;28;20471;-69
2022/12/30 02:19:52;;;;;;;18.35;2.90;;;5.60;99.90;;;;;;5090515;28;20042;-69
2022/12/30 02:22:44;;;;;;;18.40;3.90;;;5.60;99.90;;;;;;5074705;28;20032;-67
2022/12/30 02:25:39;;;;;;;11.68;2.65;;;5.60;99.90;;;;;;5068041;28;20134;-68
2022/12/30 02:28:10;;;;;;;17.83;3.28;;;5.60;99.90;;;;;;5089560;28;20134;-68
2022/12/30 02:31:06;;;;;;;10.93;2.72;;;5.60;99.90;;;;;;5092179;28;20537;-68
2022/12/30 02:33:44;;;;;;;19.30;3.17;;;5.50;99.90;;;;;;5088744;28;20059;-68
2022/12/30 02:36:25;;;;;;;16.38;3.40;;;5.50;99.90;;;;;;5129044;27;20047;-68
2022/12/30 02:39:11;;;;;;;15.98;2.80;;;5.50;99.90;;;;;;5095015;28;20047;-68
2022/12/30 02:44:37;;;;;;;18.77;3.42;;;5.60;99.90;;;;;;5094762;28;20472;-67
2022/12/30 02:47:10;;;;;;;18.35;2.67;;;5.60;99.90;;;;;;5094266;28;20058;-69
2022/12/30 02:49:38;;;;;;;14.38;2.35;;;5.50;99.90;;;;;;5129630;27;20130;-69
2022/12/30 02:52:18;;;;;;;17.10;2.38;;;5.50;99.90;;;;;;5078686;28;20047;-66
2022/12/30 02:54:48;;;;;;;16.90;2.30;;;5.50;99.90;;;;;;5129949;27;20039;-68
2022/12/30 02:57:27;;;;;;;20.60;3.95;;;5.50;99.90;;;;;;5095105;28;20050;-68
2022/12/30 03:06:06;;;;;;;20.73;3.40;;;5.50;99.90;;;;;;5095042;28;20042;-68
2022/12/30 03:08:51;;;;;;;18.63;2.83;;;5.40;99.90;;;;;;5037306;28;20103;-67
2022/12/30 03:11:17;;;;;;;14.30;2.95;;;5.40;99.90;;;;;;5034083;28;20492;-69
2022/12/30 03:13:55;;;;;;;22.80;3.55;;;5.40;99.90;;;;;;5050401;28;20060;-68
2022/12/30 03:16:36;;;;;;;12.40;2.63;;;5.40;99.90;;;;;;5016954;28;20135;-68
2022/12/30 03:19:07;;;;;;;17.17;2.97;;;5.40;99.90;;;;;;5033913;28;20492;-67
2022/12/30 03:21:35;;;;;;;15.27;3.03;;;5.40;99.90;;;;;;5049935;28;20052;-68
2022/12/30 03:27:05;;;;;;;19.00;4.20;;;5.30;99.90;;;;;;5033540;28;20059;-67
2022/12/30 03:29:42;;;;;;;16.13;3.10;;;5.30;99.90;;;;;;5035508;28;20407;-67
2022/12/30 03:32:15;;;;;;;11.52;2.45;;;5.30;99.90;;;;;;5033468;28;20053;-67
2022/12/30 03:34:42;;;;;;;19.95;2.63;;;5.30;99.90;;;;;;5064047;28;20080;-67
2022/12/30 03:37:22;;;;;;;15.82;3.60;;;5.20;99.90;;;;;;5086898;28;20515;-67
2022/12/30 03:40:02;;;;;;;12.10;2.63;;;5.20;99.90;;;;;;5052607;28;20048;-68
2022/12/30 03:42:29;;;;;;;10.02;1.98;;;5.20;99.90;;;;;;5066039;28;20089;-68
2022/12/30 03:44:55;;;;;;;14.85;3.13;;;5.20;99.90;;;;;;5076791;28;20059;-67
2022/12/30 03:47:21;;;;;;;13.95;2.28;;;5.10;99.90;;;;;;5073921;28;20040;-68
2022/12/30 03:49:47;;;;;;;17.63;2.25;;;5.10;99.90;;;;;;5073661;28;20528;-67
2022/12/30 03:52:14;;;;;;;15.27;2.78;;;5.10;99.90;;;;;;5108493;28;20044;-68
2022/12/30 03:54:44;;;;;;;15.07;2.63;;;5.00;99.90;;;;;;5107783;28;20036;-67
2022/12/30 03:57:10;;;;;;;14.23;2.50;;;5.00;99.90;;;;;;5074405;28;20490;-68
2022/12/30 03:59:35;;;;;;;16.13;2.75;;;5.00;99.90;;;;;;5107467;28;20126;-68
2022/12/30 04:02:01;;;;;;;19.38;2.17;;;5.00;99.90;;;;;;5091796;28;20043;-67
2022/12/30 04:04:27;;;;;;;12.48;2.60;;;4.90;99.90;;;;;;5073816;28;20521;-67
2022/12/30 04:06:52;;;;;;;22.90;3.67;;;4.90;99.90;;;;;;5085323;28;20135;-66
2022/12/30 04:09:18;;;;;;;14.82;2.80;;;4.90;99.90;;;;;;5073473;28;20487;-67
2022/12/30 04:11:44;;;;;;;12.88;2.30;;;4.90;99.90;;;;;;5079037;28;20046;-69
2022/12/30 04:14:11;;;;;;;10.68;2.10;;;5.00;99.90;;;;;;5090258;28;20044;-68
2022/12/30 04:16:37;;;;;;;15.23;2.83;;;4.90;99.90;;;;;;5090282;28;20395;-67
2022/12/30 04:19:03;;;;;;;10.90;2.45;;;4.90;99.90;;;;;;5090279;28;20051;-69
2022/12/30 04:21:29;;;;;;;11.45;2.60;;;4.90;99.90;;;;;;5088544;28;20530;-67
2022/12/30 04:23:54;;;;;;;13.70;2.90;;;4.90;99.90;;;;;;5072946;28;20119;-69
2022/12/30 04:26:20;;;;;;;10.77;2.53;;;4.90;99.90;;;;;;5073248;28;20032;-68
2022/12/30 04:28:45;;;;;;;12.68;2.72;;;4.80;99.90;;;;;;5073091;28;20079;-68
2022/12/30 04:31:11;;;;;;;15.90;2.58;;;4.80;99.90;;;;;;5073069;28;20150;-67
2022/12/30 04:33:37;;;;;;;15.50;2.92;;;4.80;99.90;;;;;;5072152;28;20048;-68
2022/12/30 04:36:03;;;;;;;12.63;2.70;;;4.80;99.90;;;;;;5092726;28;20102;-67
2022/12/30 04:38:29;;;;;;;12.82;3.20;;;4.80;99.90;;;;;;5093325;28;20539;-68
2022/12/30 04:40:54;;;;;;;18.02;3.72;;;4.80;99.90;;;;;;5111110;28;20031;-67
2022/12/30 04:43:20;;;;;;;15.55;3.00;;;4.80;99.90;;;;;;5110064;28;20093;-66
2022/12/30 04:45:46;;;;;;;16.02;3.03;;;4.80;99.90;;;;;;5093455;28;20040;-69
2022/12/30 04:48:11;;;;;;;14.35;3.50;;;4.80;99.90;;;;;;5075921;28;20047;-68
2022/12/30 04:50:43;;;;;;;16.55;3.35;;;4.80;99.90;;;;;;5093311;28;20184;-70
2022/12/30 04:53:10;;;;;;;11.48;2.40;;;4.80;99.90;;;;;;5092744;28;20050;-68
2022/12/30 04:55:36;;;;;;;9.63;2.72;;;4.80;99.90;;;;;;5092191;28;20035;-68
2022/12/30 04:58:02;;;;;;;14.18;3.22;;;4.70;99.90;;;;;;5093033;28;20092;-67
2022/12/30 05:00:27;;;;;;;16.38;2.60;;;4.80;99.90;;;;;;5093376;28;20043;-68
2022/12/30 05:02:53;;;;;;;14.48;2.88;;;4.80;99.90;;;;;;5092862;28;20046;-68
2022/12/30 05:05:18;;;;;;;17.83;3.58;;;4.80;99.90;;;;;;5092252;28;20127;-68
2022/12/30 05:07:44;;;;;;;14.32;3.00;;;4.80;99.90;;;;;;5093058;28;20466;-68
2022/12/30 05:10:10;;;;;;;14.25;2.95;;;4.70;99.90;;;;;;5092616;28;20031;-68
2022/12/30 05:12:35;;;;;;;13.00;2.58;;;4.70;99.90;;;;;;5092941;28;20032;-68
2022/12/30 05:15:01;;;;;;;10.15;3.03;;;4.70;99.90;;;;;;5092021;28;20075;-69
2022/12/30 05:17:27;;;;;;;15.02;2.80;;;4.70;99.90;;;;;;5092967;28;20461;-67
2022/12/30 05:19:52;;;;;;;13.90;3.20;;;4.70;99.90;;;;;;5092290;28;20409;-68
2022/12/30 05:22:18;;;;;;;16.88;3.13;;;4.70;99.90;;;;;;5093062;28;20035;-68
2022/12/30 05:27:28;;;;;;;12.48;2.55;;;4.60;99.90;;;;;;5092077;28;20524;-68
2022/12/30 05:29:53;;;;;;;9.68;2.33;;;4.60;99.90;;;;;;5092450;28;20036;-69
2022/12/30 05:32:19;;;;;;;11.75;2.47;;;4.60;99.90;;;;;;5092693;28;20548;-67
2022/12/30 05:34:45;;;;;;;10.75;2.45;;;4.60;99.90;;;;;;5092404;28;20451;-68
2022/12/30 05:37:10;;;;;;;13.23;2.70;;;4.60;99.90;;;;;;5061784;28;20051;-66
2022/12/30 05:39:36;;;;;;;14.73;2.78;;;4.60;99.90;;;;;;5055918;28;20131;-68
2022/12/30 05:42:02;;;;;;;14.90;2.72;;;4.60;99.90;;;;;;5072281;28;20032;-68
2022/12/30 05:44:27;;;;;;;14.57;2.58;;;4.60;99.90;;;;;;5106018;28;20052;-69
2022/12/30 05:46:53;;;;;;;13.15;2.50;;;4.50;99.90;;;;;;5071613;28;20050;-67
2022/12/30 05:49:19;;;;;;;13.85;2.60;;;4.60;99.90;;;;;;5071989;28;20048;-68
2022/12/30 05:51:44;;;;;;;12.30;2.35;;;4.60;99.90;;;;;;5072634;28;20109;-68
2022/12/30 05:54:10;;;;;;;13.00;2.28;;;4.60;99.90;;;;;;5071862;28;20054;-68
2022/12/30 05:56:36;;;;;;;17.55;2.53;;;4.60;99.90;;;;;;5066881;28;20123;-66
2022/12/30 05:59:01;;;;;;;12.88;2.38;;;4.60;99.90;;;;;;5089662;28;20127;-67
2022/12/30 06:01:27;;;;;;;12.50;2.28;;;4.50;99.90;;;;;;5091931;28;20043;-69
2022/12/30 06:03:56;;;;;;;13.68;3.63;;;4.50;99.90;;;;;;5081918;28;20039;-67
2022/12/30 06:06:22;;;;;;;9.80;2.35;;;4.50;99.90;;;;;;5074140;28;20039;-67
2022/12/30 06:08:48;;;;;;;11.32;2.50;;;4.50;99.90;;;;;;5057961;28;20067;-68
2022/12/30 06:11:14;;;;;;;12.07;2.35;;;4.50;99.90;;;;;;5074654;28;20442;-68
2022/12/30 06:13:40;;;;;;;13.80;2.70;;;4.50;99.90;;;;;;5075701;28;20036;-67
2022/12/30 06:16:05;;;;;;;11.77;2.97;;;4.50;99.90;;;;;;5093957;28;20036;-67
2022/12/30 06:18:32;;;;;;;12.38;3.10;;;4.40;99.90;;;;;;5074546;28;20485;-70
2022/12/30 06:20:57;;;;;;;15.15;2.65;;;4.40;99.90;;;;;;5109589;28;20048;-67
2022/12/30 06:23:24;;;;;;;19.73;3.03;;;4.40;99.90;;;;;;5058898;28;20056;-68
2022/12/30 06:25:57;;;;;;;9.88;2.40;;;4.40;99.90;;;;;;5059093;28;20035;-68
2022/12/30 06:28:25;;;;;;;13.18;2.38;;;4.30;99.90;;;;;;5077126;28;20048;-68
2022/12/30 06:30:51;;;;;;;12.77;2.45;;;4.30;99.90;;;;;;5071220;28;20126;-68
2022/12/30 06:33:17;;;;;;;11.75;2.28;;;4.30;99.90;;;;;;5095579;28;20039;-68
2022/12/30 06:35:44;;;;;;;9.18;2.40;;;4.30;99.90;;;;;;5130043;27;20078;-69
2022/12/30 06:38:10;;;;;;;15.95;2.50;;;4.30;99.90;;;;;;5096043;28;20055;-68
2022/12/30 06:40:36;;;;;;;15.65;2.72;;;4.30;99.90;;;;;;5078439;28;20398;-68
2022/12/30 06:43:02;;;;;;;11.90;2.53;;;4.30;99.90;;;;;;5097796;27;20043;-67
2022/12/30 06:45:27;;;;;;;12.18;2.38;;;4.30;99.90;;;;;;5130986;27;20490;-69
2022/12/30 06:47:53;;;;;;;16.05;2.80;;;4.30;99.90;;;;;;5079436;28;20055;-67
2022/12/30 06:50:18;;;;;;;15.85;2.47;;;4.30;99.90;;;;;;5095560;28;20177;-70
2022/12/30 06:52:44;;;;;;;16.52;2.67;;;4.30;99.90;;;;;;5095192;28;20032;-69
2022/12/30 06:55:10;;;;;;;15.40;2.35;;;4.30;99.90;;;;;;5095643;28;20093;-68
2022/12/30 06:57:36;;;;;;;13.30;2.53;;;4.20;99.90;;;;;;5095273;28;20035;-68
2022/12/30 07:00:03;;;;;;;16.80;3.53;;;4.20;99.90;;;;;;5097130;27;20039;-69
2022/12/30 07:02:29;;;;;;;16.35;3.05;;;4.20;99.90;;;;;;5097436;28;20043;-67
2022/12/30 07:04:55;;;;;;;13.90;3.35;;;4.20;99.90;;;;;;5095622;28;20708;-67
2022/12/30 07:07:20;;;;;;;10.07;2.35;;;4.20;99.90;;;;;;5095497;28;20402;-67
2022/12/30 07:09:46;;;;;;;10.82;2.28;;;4.20;99.90;;;;;;5095059;28;20105;-67
2022/12/30 07:12:12;;;;;;;17.10;2.53;;;4.20;99.90;;;;;;5094794;28;20047;-68
2022/12/30 07:14:37;;;;;;;10.45;2.30;;;4.20;99.90;;;;;;5077095;28;20440;-68
2022/12/30 07:17:03;;;;;;;15.32;2.85;;;4.20;99.90;;;;;;5079807;27;20050;-66
2022/12/30 07:19:28;;;;;;;12.98;2.97;;;4.30;99.90;;;;;;5133007;27;20489;-68
2022/12/30 07:21:55;;;;;;;15.43;2.38;;;4.20;99.90;;;;;;5087126;28;20486;-67
2022/12/30 07:24:21;;;;;;;19.23;3.78;;;4.20;99.90;;;;;;5095224;28;20031;-67
2022/12/30 07:26:46;;;;;;;14.23;3.42;;;4.30;99.90;;;;;;5096814;28;20451;-66
2022/12/30 07:29:12;;;;;;;15.27;2.72;;;4.30;99.90;;;;;;5094502;28;20059;-67
2022/12/30 07:31:39;;;;;;;16.08;2.95;;;4.30;99.90;;;;;;5128797;27;20485;-68
2022/12/30 07:34:05;;;;;;;16.20;2.63;;;4.30;99.90;;;;;;5094501;28;20079;-68
2022/12/30 07:36:31;;;;;;;15.35;2.70;;;4.30;99.90;;;;;;5076083;28;20430;-68
2022/12/30 07:39:00;;;;;;;10.77;2.67;;;4.30;99.90;;;;;;5081305;27;20763;-69
2022/12/30 07:41:26;;;;;;;16.98;2.88;;;4.30;99.90;;;;;;5076507;28;20078;-67
2022/12/30 07:43:53;;;;;;;13.77;2.40;;;4.30;99.90;;;;;;5091994;28;20036;-68
2022/12/30 07:46:19;;;;;;;12.18;3.20;;;4.30;99.90;;;;;;5094592;28;20995;-68
2022/12/30 07:48:44;;;;;;;12.85;2.67;;;4.30;99.90;;;;;;5102619;28;20148;-68
2022/12/30 07:51:13;;;;;;;11.98;2.78;;;4.30;99.90;;;;;;5093670;28;20615;-67
2022/12/30 07:53:38;;;;;;;20.48;3.63;;;4.30;99.90;;;;;;5111764;27;20371;-67
2022/12/30 07:56:06;;;;;;;13.05;3.10;;;4.40;99.90;;;;;;5089653;28;20103;-69
2022/12/30 07:58:32;;;;;;;13.70;3.75;;;4.40;99.90;;;;;;5080045;28;20043;-68
2022/12/30 08:01:02;;;;;;;13.88;2.92;;;4.40;99.90;;;;;;5105352;27;20160;-68
2022/12/30 08:03:28;;;;;;;16.25;3.50;;;4.30;99.90;;;;;;5126709;27;20067;-68
2022/12/30 08:05:54;;;;;;;14.73;2.60;;;4.40;99.90;;;;;;5093114;28;20116;-68
2022/12/30 08:08:19;;;;;;;12.60;3.00;;;4.40;99.90;;;;;;5094395;28;20172;-67
2022/12/30 08:10:57;;;;;;;20.48;3.33;;;4.40;99.90;;;;;;5094056;28;20122;-68
2022/12/30 08:13:23;;;;;;;13.30;2.60;;;4.40;99.90;;;;;;5128043;27;20035;-68
2022/12/30 08:15:49;;;;;;;17.67;2.88;;;4.50;99.90;;;;;;5094126;28;20518;-67
2022/12/30 08:18:14;;;;;;;12.02;2.78;;;4.50;99.90;;;;;;5127499;27;20042;-67
2022/12/30 08:20:40;;;;;;;14.48;4.03;;;4.50;99.90;;;;;;5128523;27;20043;-69
2022/12/30 08:23:06;;;;;;;12.07;2.63;;;4.60;99.90;;;;;;5093998;28;20039;-68
2022/12/30 08:25:31;;;;;;;14.27;2.85;;;4.60;99.90;;;;;;5094229;28;20088;-68
2022/12/30 08:27:57;;;;;;;14.63;2.92;;;4.60;99.90;;;;;;5094409;28;20059;-69
2022/12/30 08:30:23;;;;;;;13.90;2.95;;;4.70;99.90;;;;;;5093075;28;20040;-68
2022/12/30 08:32:48;;;;;;;16.00;2.63;;;4.70;99.90;;;;;;5094051;28;20046;-68
2022/12/30 08:35:14;;;;;;;21.48;5.00;;;4.80;99.90;;;;;;5093609;28;20064;-69
2022/12/30 08:37:41;;;;;;;17.65;3.33;;;4.70;99.90;;;;;;5093994;28;20036;-69
2022/12/30 08:40:08;;;;;;;15.50;2.85;;;4.80;99.90;;;;;;5127903;27;20047;-68
2022/12/30 08:42:37;;;;;;;15.02;2.55;;;4.80;99.90;;;;;;5128041;27;20024;-68
2022/12/30 08:45:06;;;;;;;13.02;3.17;;;4.80;99.90;;;;;;5093747;28;20043;-68
2022/12/30 08:47:35;;;;;;;13.07;2.70;;;4.90;99.90;;;;;;5076930;28;20044;-68
2022/12/30 08:50:08;;;;;;;14.00;3.13;;;4.90;99.90;;;;;;5088011;28;20455;-69
2022/12/30 08:52:35;;;;;;;14.10;3.17;;;5.00;99.90;;;;;;5069955;28;20139;-69
2022/12/30 08:55:01;;;;;;;11.00;2.15;;;5.00;99.90;;;;;;5087054;28;20086;-68
2022/12/30 08:57:27;;;;;;;16.42;3.95;;;5.00;99.90;;;;;;5069973;28;20908;-69
2022/12/30 08:59:53;;;;;;;16.52;3.15;;;5.00;99.90;;;;;;5086801;28;20040;-69
2022/12/30 09:02:18;;;;;;;13.32;2.72;;;5.10;99.90;;;;;;5086406;28;20090;-70
2022/12/30 09:04:44;;;;;;;13.73;3.97;;;5.20;99.90;;;;;;5086974;28;20040;-69
2022/12/30 09:07:09;;;;;;;9.63;2.30;;;5.20;99.90;;;;;;5086413;28;20126;-70
2022/12/30 09:09:36;;;;;;;15.85;3.30;;;5.20;99.90;;;;;;5086574;28;20036;-70
2022/12/30 09:12:02;;;;;;;13.45;2.63;;;5.30;99.90;;;;;;5086733;28;20040;-70
2022/12/30 09:14:28;;;;;;;10.68;2.50;;;5.30;99.90;;;;;;5086579;28;20043;-70
2022/12/30 09:16:53;;;;;;;12.93;2.38;;;5.30;99.90;;;;;;5086353;28;20036;-68
2022/12/30 09:19:20;;;;;;;11.27;2.40;;;5.30;99.90;;;;;;5086110;28;20040;-70
2022/12/30 09:21:46;;;;;;;15.85;2.83;;;5.30;99.90;;;;;;5069700;28;20142;-70
2022/12/30 09:24:11;;;;;;;9.95;2.70;;;5.40;99.90;;;;;;5086529;28;20052;-69
2022/12/30 09:26:37;;;;;;;11.95;2.47;;;5.40;99.90;;;;;;5085952;28;20043;-69
2022/12/30 09:29:03;;;;;;;16.42;3.30;;;5.50;99.90;;;;;;5086234;28;20044;-69
2022/12/30 09:31:29;;;;;;;9.80;2.15;;;5.50;99.90;;;;;;5085855;28;20558;-70
2022/12/30 09:33:55;;;;;;;11.32;2.60;;;5.50;99.90;;;;;;5086244;28;20049;-69
2022/12/30 09:36:21;;;;;;;10.27;2.55;;;5.60;99.90;;;;;;5086103;28;20510;-70
2022/12/30 09:38:48;;;;;;;11.27;2.45;;;5.60;99.90;;;;;;5083064;28;20040;-69
2022/12/30 09:44:27;;;;;;;8.07;1.90;;;5.70;99.90;;;;;;5085249;28;20083;-69
2022/12/30 09:46:58;;;;;;;8.77;2.00;;;5.70;99.90;;;;;;5085696;28;20048;-68
2022/12/30 09:49:42;;;;;;;9.73;2.00;;;5.80;99.90;;;;;;5068066;28;20135;-68
2022/12/30 09:52:48;;;;;;;7.75;2.10;;;5.80;99.90;;;;;;5086807;28;20040;-70
2022/12/30 09:55:48;;;;;;;10.25;2.22;;;5.90;99.90;;;;;;5085218;28;20033;-69
2022/12/30 09:58:37;;;;;;;12.10;2.00;;;6.00;99.90;;;;;;5077604;28;20487;-68
2022/12/30 10:01:19;;;;;;;7.38;1.88;;;6.00;99.90;;;;;;5074707;28;20483;-69
2022/12/30 10:03:45;;;;;;;11.50;2.28;;;6.00;99.90;;;;;;5055897;28;20096;-69
2022/12/30 10:06:28;;;;;;;11.27;1.95;;;6.10;99.90;;;;;;5055446;28;20161;-69
2022/12/30 10:09:24;;;;;;;11.02;2.75;;;6.10;99.90;;;;;;5071058;28;20041;-68
2022/12/30 10:12:29;;;;;;;8.45;1.80;;;6.10;99.90;;;;;;5055159;28;20123;-70
2022/12/30 10:15:14;;;;;;;10.23;2.10;;;6.20;99.90;;;;;;5071855;28;20111;-70
2022/12/30 10:17:46;;;;;;;8.55;1.90;;;6.30;99.90;;;;;;5055383;28;20110;-69
2022/12/30 10:20:46;;;;;;;11.23;2.22;;;6.30;99.90;;;;;;5071828;28;20039;-70
2022/12/30 10:23:11;;;;;;;8.77;1.83;;;6.40;99.90;;;;;;5072037;28;20501;-69
2022/12/30 10:25:49;;;;;;;10.80;2.20;;;6.40;99.90;;;;;;5071594;28;20067;-69
2022/12/30 10:28:24;;;;;;;6.55;1.73;;;6.50;99.90;;;;;;5071576;28;20074;-70
2022/12/30 10:30:49;;;;;;;6.63;2.00;;;6.50;99.90;;;;;;5071598;28;20097;-68
2022/12/30 10:33:21;;;;;;;13.40;2.50;;;6.60;99.90;;;;;;5071562;28;20631;-70
2022/12/30 10:36:01;;;;;;;9.13;1.90;;;6.60;99.90;;;;;;5054788;28;20071;-69
2022/12/30 10:38:30;;;;;;;11.07;2.15;;;6.60;99.90;;;;;;5071463;28;20051;-69
2022/12/30 10:41:20;;;;;;;10.00;2.42;;;6.60;99.90;;;;;;5054992;28;20576;-69
2022/12/30 10:44:01;;;;;;;12.25;2.35;;;6.70;99.90;;;;;;5071091;28;20131;-70
2022/12/30 10:46:48;;;;;;;6.00;1.45;;;6.70;99.90;;;;;;5054598;28;20045;-69
2022/12/30 10:49:39;;;;;;;10.85;1.98;;;6.70;99.90;;;;;;5071135;28;20484;-69
2022/12/30 10:52:07;;;;;;;8.10;1.40;;;6.70;99.90;;;;;;5071188;28;20127;-69
2022/12/30 10:54:33;;;;;;;7.93;1.73;;;6.70;99.90;;;;;;5071327;28;20391;-70
2022/12/30 10:56:58;;;;;;;8.68;1.65;;;6.70;99.90;;;;;;5071081;28;20068;-69
2022/12/30 10:59:28;;;;;;;8.63;1.80;;;6.80;99.90;;;;;;5071049;28;20513;-68
2022/12/30 11:02:00;;;;;;;6.88;1.70;;;6.70;99.90;;;;;;5071105;28;20561;-69
2022/12/30 11:04:36;;;;;;;7.47;1.42;;;6.80;99.90;;;;;;5071116;28;20164;-69
2022/12/30 11:07:05;;;;;;;9.57;1.60;;;6.80;99.90;;;;;;5071046;28;20177;-69
2022/12/30 11:09:31;;;;;;;6.97;1.63;;;6.80;99.90;;;;;;5070858;28;20120;-69
2022/12/30 11:15:01;;;;;;;11.52;1.60;;;6.90;99.90;;;;;;5070786;28;20611;-69
2022/12/30 11:17:32;;;;;;;7.00;2.03;;;6.90;99.90;;;;;;5070629;28;20399;-70
2022/12/30 11:20:18;;;;;;;6.88;1.20;;;6.90;99.90;;;;;;5070667;28;20083;-69
2022/12/30 11:22:51;;;;;;;6.32;1.58;;;6.90;99.90;;;;;;5069898;28;20040;-68
2022/12/30 11:25:29;;;;;;;5.70;1.70;;;6.90;99.90;;;;;;5070558;28;20059;-69
2022/12/30 11:27:58;;;;;;;6.05;1.85;;;6.90;99.90;;;;;;5069969;28;20058;-69
2022/12/30 11:30:34;;;;;;;6.95;1.50;;;7.00;99.90;;;;;;5064540;28;20040;-69
2022/12/30 11:33:03;;;;;;;6.82;1.55;;;7.00;99.90;;;;;;5069593;28;20040;-69
2022/12/30 11:35:36;;;;;;;5.80;1.83;;;7.00;99.90;;;;;;5053301;28;20059;-68
2022/12/30 11:38:06;;;;;;;8.02;1.48;;;7.00;99.90;;;;;;5069536;28;20045;-70
2022/12/30 11:40:35;;;;;;;6.13;1.50;;;7.10;99.90;;;;;;5069858;28;20040;-69
2022/12/30 11:43:15;;;;;;;4.28;1.10;;;7.10;99.90;;;;;;5069719;28;20075;-70
2022/12/30 11:45:56;;;;;;;4.93;1.23;;;7.20;99.90;;;;;;5053578;28;20571;-70
2022/12/30 11:48:33;;;;;;;5.07;1.30;;;7.20;99.90;;;;;;5069382;28;20048;-69
2022/12/30 11:51:02;;;;;;;4.80;1.35;;;7.20;99.90;;;;;;5069275;28;20040;-69
2022/12/30 11:53:33;;;;;;;5.03;1.60;;;7.30;99.90;;;;;;5053357;28;20060;-70
2022/12/30 11:55:59;;;;;;;5.07;1.38;;;7.30;99.90;;;;;;5070700;28;20115;-68
2022/12/30 11:58:25;;;;;;;7.82;1.42;;;7.40;99.90;;;;;;5069611;28;20143;-68
2022/12/30 12:01:07;;;;;;;7.47;2.10;;;7.40;99.90;;;;;;5069327;28;20131;-69
2022/12/30 12:03:44;;;;;;;9.77;3.58;;;7.50;99.90;;;;;;5069998;28;20497;-69
2022/12/30 12:06:11;;;;;;;12.07;5.15;;;7.50;99.90;;;;;;5052932;28;20067;-68
2022/12/30 12:08:44;;;;;;;13.45;5.10;;;7.50;99.90;;;;;;5069914;28;20039;-69
2022/12/30 12:11:35;;;;;;;9.27;3.67;;;7.50;99.90;;;;;;5069942;28;20399;-69
2022/12/30 12:14:22;;;;;;;6.13;2.22;;;7.60;99.90;;;;;;5012060;28;20595;-70
2022/12/30 12:17:01;;;;;;;4.82;1.55;;;7.60;99.90;;;;;;5012206;28;20124;-70
2022/12/30 12:20:06;;;;;;;5.40;1.40;;;7.60;99.90;;;;;;5012176;28;20057;-69
2022/12/30 12:22:57;;;;;;;4.45;1.27;;;7.70;99.90;;;;;;4937735;29;20056;-68
2022/12/30 12:25:35;;;;;;;7.07;1.20;;;7.80;99.90;;;;;;4927287;29;20430;-69
2022/12/30 12:28:00;;;;;;;5.13;0.95;;;7.80;99.90;;;;;;4934295;29;20055;-69
2022/12/30 12:30:54;;;;;;;4.15;1.40;;;7.90;99.90;;;;;;4934585;29;20039;-69
2022/12/30 12:33:57;;;;;;;4.90;0.95;;;7.90;99.90;;;;;;4877761;29;20088;-69
2022/12/30 12:36:55;;;;;;;6.00;1.10;;;8.00;99.90;;;;;;4912296;29;20048;-70
2022/12/30 12:39:55;;;;;;;13.73;2.00;;;8.00;99.90;;;;;;4874442;29;20114;-68
2022/12/30 12:42:26;;;;;;;5.13;1.17;;;8.00;99.90;;;;;;4859017;29;20100;-69
2022/12/30 12:45:20;;;;;;;4.97;1.33;;;8.00;99.90;;;;;;4874643;29;20088;-68
2022/12/30 12:48:16;;;;;;;7.75;1.27;;;8.00;99.90;;;;;;4872462;29;20128;-68
2022/12/30 12:50:51;;;;;;;6.15;1.20;;;8.10;99.90;;;;;;4864626;29;20686;-69
2022/12/30 12:53:44;;;;;;;8.68;1.30;;;8.10;99.90;;;;;;4877764;29;20072;-69
2022/12/30 12:56:18;;;;;;;;;;;8.10;99.90;;;;;;4878182;29;20583;-69
2022/12/30 12:59:17;;;;;;;5.32;1.77;;;8.10;99.90;;;;;;4938697;29;19926;-67
2022/12/30 13:02:02;;;;;;;5.70;1.25;;;8.20;99.90;;;;;;4934375;29;20097;-67
2022/12/30 13:04:36;;;;;;;8.43;1.58;;;8.20;99.90;;;;;;4933961;29;20055;-67
2022/12/30 13:07:42;;;;;;;4.45;1.05;;;8.20;99.90;;;;;;4934140;29;20528;-66
2022/12/30 13:10:33;;;;;;;4.13;1.10;;;8.20;99.90;;;;;;4895780;29;20060;-67
2022/12/30 13:13:02;;;;;;;5.25;1.48;;;8.20;99.90;;;;;;4912056;29;20095;-68
2022/12/30 13:15:35;;;;;;;5.13;0.95;;;8.30;99.90;;;;;;4955907;28;20057;-67
2022/12/30 13:18:03;;;;;;;;;;;8.30;99.90;;;;;;4989148;28;20053;-66
2022/12/30 13:20:35;;;;;;;5.35;1.17;;;8.30;99.90;;;;;;4969137;28;19929;-67
2022/12/30 13:23:05;;;;;;;4.95;1.13;;;8.30;99.90;;;;;;4970189;28;20128;-66
2022/12/30 13:25:38;;;;;;;4.78;1.20;;;8.30;99.90;;;;;;4988420;28;20465;-67
2022/12/30 13:28:06;;;;;;;7.45;1.50;;;8.30;99.90;;;;;;4968815;28;20072;-66
2022/12/30 13:30:46;;;;;;;4.45;1.10;;;8.40;99.90;;;;;;4988270;28;20437;-67
2022/12/30 13:33:41;;;;;;;4.93;1.10;;;8.40;99.90;;;;;;4988367;28;20395;-66
2022/12/30 13:36:25;;;;;;;7.47;1.30;;;8.40;99.90;;;;;;4989925;28;20050;-68
2022/12/30 13:38:57;;;;;;;4.25;1.20;;;8.40;99.90;;;;;;4991740;28;20042;-69
2022/12/30 13:41:49;;;;;;;7.82;1.20;;;8.50;99.90;;;;;;4991507;28;20077;-68
2022/12/30 13:44:19;;;;;;;6.20;1.45;;;8.50;99.90;;;;;;4949024;28;20047;-68
2022/12/30 13:46:50;;;;;;;7.05;1.25;;;8.60;99.90;;;;;;5028844;28;20487;-69
2022/12/30 13:49:32;;;;;;;5.22;1.02;;;8.60;99.90;;;;;;5072246;28;20407;-68
2022/12/30 13:52:18;;;;;;;5.28;1.13;;;8.70;99.90;;;;;;5071154;28;20041;-67
2022/12/30 13:54:51;;;;;;;5.30;1.13;;;8.70;99.90;;;;;;5072311;28;20486;-66
2022/12/30 13:57:37;;;;;;;5.55;1.30;;;8.70;99.90;;;;;;5072758;28;20555;-68
2022/12/30 14:00:25;;;;;;;5.50;1.67;;;8.70;99.90;;;;;;5072178;28;20044;-67
2022/12/30 14:02:54;;;;;;;7.53;1.67;;;8.70;99.90;;;;;;5072233;28;20040;-66
2022/12/30 14:05:46;;;;;;;3.42;1.00;;;8.70;99.90;;;;;;5072340;28;20044;-66